createdAt,value
2023-04-27T00:01:15.450Z,9.18
2023-04-27T00:03:42.005Z,9.11
2023-04-27T00:06:08.234Z,9.06
2023-04-27T00:08:34.608Z,9.08
2023-04-27T00:11:01.027Z,8.99
2023-04-27T00:13:27.473Z,8.93
2023-04-27T00:15:53.914Z,8.92
2023-04-27T00:18:20.190Z,8.81
2023-04-27T00:20:46.617Z,8.76
2023-04-27T00:23:13.139Z,8.74
2023-04-27T00:25:39.483Z,8.68
2023-04-27T00:28:05.865Z,8.65
2023-04-27T00:30:32.346Z,8.60
2023-04-27T00:32:58.820Z,8.52
2023-04-27T00:35:25.158Z,8.48
2023-04-27T00:37:51.575Z,8.45
2023-04-27T00:40:17.983Z,8.40
2023-04-27T00:42:44.397Z,8.35
2023-04-27T00:45:10.872Z,8.26
2023-04-27T00:47:37.337Z,8.23
2023-04-27T00:50:03.722Z,8.20
2023-04-27T00:52:30.151Z,8.17
2023-04-27T00:54:56.573Z,8.16
2023-04-27T00:57:22.951Z,8.11
2023-04-27T00:59:51.990Z,8.08
2023-04-27T01:02:15.988Z,8.02
2023-04-27T01:04:42.324Z,7.98
2023-04-27T01:07:08.699Z,7.92
2023-04-27T01:09:35.101Z,7.92
2023-04-27T01:12:01.585Z,7.86
2023-04-27T01:14:27.991Z,7.85
2023-04-27T01:16:54.437Z,7.80
2023-04-27T01:19:20.877Z,7.76
2023-04-27T01:21:47.248Z,7.71
2023-04-27T01:24:13.659Z,7.72
2023-04-27T01:26:40.109Z,7.67
2023-04-27T01:29:06.596Z,7.64
2023-04-27T01:31:33.041Z,7.64
2023-04-27T01:33:59.451Z,7.63
2023-04-27T01:36:25.863Z,7.57
2023-04-27T01:38:52.280Z,7.56
2023-04-27T01:41:18.718Z,7.58
2023-04-27T01:43:45.190Z,7.57
2023-04-27T01:46:11.654Z,7.58
2023-04-27T01:48:38.084Z,7.57
2023-04-27T01:51:04.535Z,7.56
2023-04-27T01:53:33.240Z,7.56
2023-04-27T01:55:59.711Z,7.56
2023-04-27T01:58:26.143Z,7.55
2023-04-27T02:00:52.543Z,7.54
2023-04-27T02:03:19.216Z,7.56
2023-04-27T02:05:45.371Z,7.52
2023-04-27T02:08:11.827Z,7.53
2023-04-27T02:10:38.273Z,7.52
2023-04-27T02:13:04.646Z,7.50
2023-04-27T02:15:31.060Z,7.53
2023-04-27T02:17:57.650Z,7.50
2023-04-27T02:20:23.979Z,7.43
2023-04-27T02:22:50.407Z,7.42
2023-04-27T02:25:16.833Z,7.45
2023-04-27T02:27:43.233Z,7.47
2023-04-27T02:30:09.623Z,7.43
2023-04-27T02:32:36.152Z,7.39
2023-04-27T02:35:02.458Z,7.32
2023-04-27T02:37:28.841Z,7.29
2023-04-27T02:39:55.263Z,7.29
2023-04-27T02:42:21.693Z,7.28
2023-04-27T02:44:48.098Z,7.26
2023-04-27T02:47:14.561Z,7.26
2023-04-27T02:49:40.939Z,7.26
2023-04-27T02:52:07.431Z,7.27
2023-04-27T02:54:33.850Z,7.22
2023-04-27T02:57:00.257Z,7.18
2023-04-27T02:59:28.516Z,7.17
2023-04-27T03:01:53.074Z,7.19
2023-04-27T03:04:19.638Z,7.14
2023-04-27T03:06:45.893Z,7.10
2023-04-27T03:09:12.575Z,7.06
2023-04-27T03:11:38.708Z,7.07
2023-04-27T03:14:05.112Z,7.04
2023-04-27T03:16:31.629Z,7.02
2023-04-27T03:18:57.948Z,7.02
2023-04-27T03:21:24.448Z,7.04
2023-04-27T03:23:50.798Z,7.06
2023-04-27T03:26:17.194Z,7.01
2023-04-27T03:28:43.598Z,7.00
2023-04-27T03:31:09.998Z,6.99
2023-04-27T03:33:36.452Z,6.95
2023-04-27T03:36:02.877Z,6.96
2023-04-27T03:38:30.393Z,6.97
2023-04-27T03:40:56.820Z,6.94
2023-04-27T03:43:23.227Z,6.93
2023-04-27T03:45:49.829Z,6.93
2023-04-27T03:48:16.176Z,6.97
2023-04-27T03:50:42.529Z,6.99
2023-04-27T03:53:08.935Z,6.99
2023-04-27T03:55:36.469Z,6.99
2023-04-27T03:58:02.812Z,7.01
2023-04-27T04:00:29.311Z,7.01
2023-04-27T04:02:55.882Z,7.00
2023-04-27T04:05:22.396Z,7.04
2023-04-27T04:07:48.732Z,7.08
2023-04-27T04:10:15.199Z,7.07
2023-04-27T04:12:41.600Z,7.02
2023-04-27T04:15:08.246Z,7.05
2023-04-27T04:17:34.712Z,7.03
2023-04-27T04:20:01.042Z,7.02
2023-04-27T04:22:27.538Z,7.06
2023-04-27T04:24:54.170Z,7.01
2023-04-27T04:27:20.534Z,7.06
2023-04-27T04:29:46.917Z,7.17
2023-04-27T04:32:13.437Z,7.20
2023-04-27T04:34:39.828Z,7.23
2023-04-27T04:37:06.298Z,7.25
2023-04-27T04:39:32.790Z,7.33
2023-04-27T04:41:59.216Z,7.38
2023-04-27T04:44:28.536Z,7.52
2023-04-27T04:46:54.966Z,8.11
2023-04-27T04:49:21.382Z,8.84
2023-04-27T04:51:47.825Z,9.37
2023-04-27T04:54:14.243Z,9.67
2023-04-27T04:56:40.673Z,10.36
2023-04-27T04:59:07.030Z,10.77
2023-04-27T05:01:33.457Z,11.15
2023-04-27T05:04:00.056Z,11.45
2023-04-27T05:06:26.437Z,10.99
2023-04-27T05:08:52.978Z,11.17
2023-04-27T05:11:19.627Z,11.72
2023-04-27T05:13:46.049Z,11.31
2023-04-27T05:16:12.529Z,12.16
2023-04-27T05:18:38.931Z,13.01
2023-04-27T05:21:05.317Z,13.28
2023-04-27T05:23:31.724Z,13.08
2023-04-27T05:25:58.166Z,11.44
2023-04-27T05:28:24.567Z,10.26
2023-04-27T05:30:51.100Z,9.77
2023-04-27T05:33:17.510Z,9.43
2023-04-27T05:35:43.969Z,9.39
2023-04-27T05:38:10.409Z,9.28
2023-04-27T05:40:36.921Z,9.13
2023-04-27T05:43:03.489Z,9.16
2023-04-27T05:45:29.875Z,9.37
2023-04-27T05:47:56.563Z,9.49
2023-04-27T05:50:23.021Z,9.44
2023-04-27T05:52:49.386Z,9.37
2023-04-27T05:55:15.769Z,9.62
2023-04-27T05:57:42.428Z,9.92
2023-04-27T06:00:08.783Z,9.72
2023-04-27T06:02:35.387Z,9.67
2023-04-27T06:05:01.732Z,9.79
2023-04-27T06:07:28.113Z,9.91
2023-04-27T06:09:54.607Z,11.15
2023-04-27T06:12:21.041Z,11.06
2023-04-27T06:14:47.515Z,10.88
2023-04-27T06:17:14.127Z,10.86
2023-04-27T06:19:40.607Z,11.11
2023-04-27T06:22:08.001Z,11.03
2023-04-27T06:24:34.377Z,11.84
2023-04-27T06:27:00.849Z,12.02
2023-04-27T06:29:27.507Z,11.93
2023-04-27T06:31:53.952Z,11.65
2023-04-27T06:34:20.342Z,11.85
2023-04-27T06:36:46.874Z,12.68
2023-04-27T06:39:13.381Z,12.99
2023-04-27T06:41:39.660Z,14.14
2023-04-27T06:44:06.109Z,14.61
2023-04-27T06:46:32.587Z,15.29
2023-04-27T06:48:58.922Z,15.62
2023-04-27T06:51:25.245Z,15.90
2023-04-27T06:53:51.773Z,16.05
2023-04-27T06:56:18.191Z,16.37
2023-04-27T06:58:44.587Z,15.88
2023-04-27T07:01:11.096Z,15.79
2023-04-27T07:03:37.782Z,15.15
2023-04-27T07:06:03.857Z,15.49
2023-04-27T07:08:30.308Z,15.07
2023-04-27T07:10:56.976Z,14.84
2023-04-27T07:13:23.350Z,16.09
2023-04-27T07:15:49.760Z,17.06
2023-04-27T07:18:16.276Z,17.20
2023-04-27T07:20:43.904Z,17.44
2023-04-27T07:23:10.274Z,15.25
2023-04-27T07:25:36.756Z,14.04
2023-04-27T07:28:03.284Z,13.74
2023-04-27T07:30:29.713Z,13.39
2023-04-27T07:32:56.519Z,13.20
2023-04-27T07:35:22.875Z,12.73
2023-04-27T07:37:49.355Z,12.83
2023-04-27T07:40:15.706Z,12.68
2023-04-27T07:42:42.210Z,12.67
2023-04-27T07:45:08.785Z,12.95
2023-04-27T07:47:35.172Z,13.60
2023-04-27T07:50:01.508Z,15.22
2023-04-27T07:52:28.028Z,16.63
2023-04-27T07:54:54.406Z,17.62
2023-04-27T07:57:20.832Z,18.19
2023-04-27T07:59:47.308Z,16.55
2023-04-27T08:02:20.117Z,15.51
2023-04-27T08:04:42.824Z,16.96
2023-04-27T08:07:09.696Z,15.59
2023-04-27T08:09:37.545Z,14.65
2023-04-27T08:12:01.914Z,16.17
2023-04-27T08:14:28.735Z,16.53
2023-04-27T08:16:55.168Z,16.75
2023-04-27T08:19:21.585Z,15.92
2023-04-27T08:21:48.065Z,16.11
2023-04-27T08:24:14.504Z,16.96
2023-04-27T08:26:41.008Z,17.39
2023-04-27T08:29:19.402Z,17.96
2023-04-27T08:31:33.839Z,18.26
2023-04-27T08:34:00.299Z,18.33
2023-04-27T08:36:26.681Z,18.28
2023-04-27T08:38:53.084Z,18.29
2023-04-27T08:41:21.842Z,18.36
2023-04-27T08:43:45.952Z,19.28
2023-04-27T08:46:12.471Z,19.49
2023-04-27T08:48:39.009Z,19.15
2023-04-27T08:51:05.432Z,19.17
2023-04-27T08:53:31.824Z,19.55
2023-04-27T08:55:58.274Z,19.59
2023-04-27T08:58:24.708Z,18.89
2023-04-27T09:00:52.493Z,17.50
2023-04-27T09:03:17.616Z,16.40
2023-04-27T09:05:56.147Z,15.61
2023-04-27T09:08:10.307Z,15.65
2023-04-27T09:10:36.802Z,16.52
2023-04-27T09:13:03.224Z,15.63
2023-04-27T09:15:29.619Z,14.84
2023-04-27T09:17:56.234Z,15.60
2023-04-27T09:20:22.672Z,17.27
2023-04-27T09:22:49.043Z,17.70
2023-04-27T09:25:15.435Z,16.05
2023-04-27T09:27:42.007Z,15.36
2023-04-27T09:30:08.548Z,15.89
2023-04-27T09:32:35.044Z,17.27
2023-04-27T09:35:01.385Z,18.45
2023-04-27T09:37:27.803Z,18.10
2023-04-27T09:39:54.240Z,17.33
2023-04-27T09:42:20.655Z,16.71
2023-04-27T09:44:47.081Z,15.84
2023-04-27T09:47:13.491Z,15.45
2023-04-27T09:49:39.882Z,15.99
2023-04-27T09:52:06.320Z,16.45
2023-04-27T09:54:32.789Z,15.80
2023-04-27T09:56:59.223Z,15.28
2023-04-27T09:59:25.609Z,14.77
2023-04-27T10:01:52.116Z,14.71
2023-04-27T10:04:18.620Z,14.32
2023-04-27T10:06:44.907Z,14.36
2023-04-27T10:09:11.732Z,14.21
2023-04-27T10:11:37.818Z,14.51
2023-04-27T10:14:04.244Z,14.71
2023-04-27T10:16:30.753Z,14.79
2023-04-27T10:18:57.153Z,14.61
2023-04-27T10:21:24.658Z,16.40
2023-04-27T10:23:51.091Z,16.91
2023-04-27T10:26:17.423Z,17.18
2023-04-27T10:28:43.867Z,16.47
2023-04-27T10:31:10.548Z,16.25
2023-04-27T10:33:36.908Z,16.61
2023-04-27T10:36:03.275Z,16.75
2023-04-27T10:38:29.683Z,16.56
2023-04-27T10:40:56.069Z,15.84
2023-04-27T10:43:23.538Z,15.12
2023-04-27T10:45:50.122Z,14.74
2023-04-27T10:48:16.493Z,14.78
2023-04-27T10:50:42.860Z,14.85
2023-04-27T10:53:09.295Z,15.14
2023-04-27T10:55:35.721Z,15.53
2023-04-27T10:58:02.157Z,15.42
2023-04-27T11:00:28.567Z,15.19
2023-04-27T11:02:55.064Z,15.11
2023-04-27T11:05:21.532Z,15.03
2023-04-27T11:07:47.942Z,14.78
2023-04-27T11:10:14.317Z,14.69
2023-04-27T11:12:40.792Z,14.67
2023-04-27T11:15:07.167Z,14.67
2023-04-27T11:17:33.624Z,14.74
2023-04-27T11:20:00.007Z,14.75
2023-04-27T11:22:27.528Z,14.74
2023-04-27T11:24:53.938Z,14.82
2023-04-27T11:27:20.381Z,15.13
2023-04-27T11:29:46.946Z,15.27
2023-04-27T11:32:13.414Z,14.80
2023-04-27T11:34:39.791Z,14.65
2023-04-27T11:39:32.606Z,14.80
2023-04-27T11:41:59.023Z,14.88
2023-04-27T11:44:25.439Z,15.12
2023-04-27T11:46:51.910Z,14.97
2023-04-27T11:49:18.249Z,14.99
2023-04-27T11:51:44.654Z,15.20
2023-04-27T11:54:11.078Z,15.08
2023-04-27T11:56:37.494Z,15.09
2023-04-27T11:59:03.877Z,14.88
2023-04-27T12:01:37.630Z,14.61
2023-04-27T12:03:57.630Z,14.66
2023-04-27T12:08:49.502Z,14.98
2023-04-27T12:11:15.971Z,14.94
2023-04-27T12:13:42.391Z,14.91
2023-04-27T12:16:08.812Z,15.14
2023-04-27T12:18:35.226Z,15.11
2023-04-27T12:21:03.341Z,15.19
2023-04-27T12:23:28.032Z,15.56
2023-04-27T12:25:54.444Z,16.09
2023-04-27T12:28:20.834Z,15.97
2023-04-27T12:30:47.245Z,15.87
2023-04-27T12:33:13.671Z,15.74
2023-04-27T12:35:40.127Z,15.51
2023-04-27T12:38:06.535Z,15.24
2023-04-27T12:40:32.961Z,15.06
2023-04-27T12:43:01.047Z,15.09
2023-04-27T12:45:25.999Z,15.06
2023-04-27T12:48:02.870Z,14.93
2023-04-27T12:50:18.870Z,14.86
2023-04-27T12:52:45.315Z,14.99
2023-04-27T12:55:24.720Z,15.27
2023-04-27T12:57:38.208Z,15.51
2023-04-27T13:00:04.607Z,15.57
2023-04-27T13:02:31.169Z,15.60
2023-04-27T13:04:57.540Z,15.70
2023-04-27T13:07:23.876Z,15.80
2023-04-27T13:09:50.258Z,15.70
2023-04-27T13:12:16.689Z,15.21
2023-04-27T13:14:43.107Z,14.83
2023-04-27T13:17:09.587Z,14.88
2023-04-27T13:19:35.969Z,15.03
2023-04-27T13:22:02.383Z,15.08
2023-04-27T13:24:28.898Z,15.11
2023-04-27T13:26:55.265Z,14.99
2023-04-27T13:29:21.663Z,14.91
2023-04-27T13:31:48.116Z,14.88
2023-04-27T13:34:14.657Z,14.92
2023-04-27T13:36:40.898Z,15.10
2023-04-27T13:39:08.551Z,15.06
2023-04-27T13:41:34.944Z,15.00
2023-04-27T13:44:01.333Z,14.95
2023-04-27T13:46:27.743Z,14.73
2023-04-27T13:48:54.122Z,14.71
2023-04-27T13:51:20.661Z,14.59
2023-04-27T13:53:47.033Z,14.42
2023-04-27T13:56:13.450Z,14.42
2023-04-27T13:58:39.841Z,14.47
2023-04-27T14:01:06.318Z,14.49
2023-04-27T14:03:32.811Z,14.52
2023-04-27T14:05:59.054Z,14.69
2023-04-27T14:08:25.485Z,14.83
2023-04-27T14:10:51.973Z,14.73
2023-04-27T14:13:18.394Z,14.52
2023-04-27T14:15:44.816Z,14.37
2023-04-27T14:18:11.251Z,14.33
2023-04-27T14:20:37.638Z,14.43
2023-04-27T14:23:04.087Z,14.41
2023-04-27T14:25:30.470Z,14.35
2023-04-27T14:27:56.919Z,14.40
2023-04-27T14:30:23.311Z,14.25
2023-04-27T14:32:49.748Z,14.30
2023-04-27T14:35:16.122Z,14.47
2023-04-27T14:37:42.500Z,14.52
2023-04-27T14:40:08.940Z,14.44
2023-04-27T14:42:35.354Z,14.37
2023-04-27T14:45:01.720Z,14.28
2023-04-27T14:47:28.293Z,14.34
2023-04-27T14:49:54.678Z,14.05
2023-04-27T14:52:21.049Z,13.85
2023-04-27T14:54:47.467Z,13.87
2023-04-27T14:57:13.924Z,13.89
2023-04-27T14:59:40.342Z,14.08
2023-04-27T15:02:06.838Z,14.17
2023-04-27T15:04:33.218Z,14.15
2023-04-27T15:06:59.587Z,14.21
2023-04-27T15:09:26.012Z,14.16
2023-04-27T15:11:52.418Z,13.91
2023-04-27T15:14:18.923Z,13.72
2023-04-27T15:16:45.354Z,13.56
2023-04-27T15:19:11.771Z,13.50
2023-04-27T15:21:38.174Z,13.50
2023-04-27T15:24:04.595Z,13.52
2023-04-27T15:26:30.978Z,13.49
2023-04-27T15:28:57.448Z,13.38
2023-04-27T15:31:23.851Z,13.15
2023-04-27T15:33:50.187Z,13.20
2023-04-27T15:36:17.685Z,13.17
2023-04-27T15:38:44.099Z,13.23
2023-04-27T15:41:10.509Z,13.20
2023-04-27T15:43:36.998Z,13.18
2023-04-27T15:46:03.403Z,13.14
2023-04-27T15:48:29.758Z,13.11
2023-04-27T15:50:56.158Z,13.13
2023-04-27T15:53:22.547Z,13.07
2023-04-27T15:55:48.929Z,13.07
2023-04-27T15:58:15.356Z,13.04
2023-04-27T16:00:43.022Z,12.97
2023-04-27T16:03:10.913Z,12.95
2023-04-27T16:05:35.891Z,12.92
2023-04-27T16:08:02.330Z,12.91
2023-04-27T16:10:28.744Z,12.87
2023-04-27T16:12:55.352Z,12.93
2023-04-27T16:15:21.919Z,12.94
2023-04-27T16:17:48.441Z,12.99
2023-04-27T16:20:14.834Z,12.89
2023-04-27T16:22:41.220Z,12.82
2023-04-27T16:25:07.631Z,12.77
2023-04-27T16:27:34.016Z,12.66
2023-04-27T16:30:00.436Z,12.58
2023-04-27T16:32:26.889Z,12.52
2023-04-27T16:34:54.244Z,12.50
2023-04-27T16:37:20.665Z,12.45
2023-04-27T16:39:47.212Z,12.35
2023-04-27T16:42:13.751Z,12.30
2023-04-27T16:44:40.213Z,12.25
2023-04-27T16:47:06.636Z,12.18
2023-04-27T16:49:32.996Z,12.14
2023-04-27T16:51:59.414Z,12.16
2023-04-27T16:54:25.773Z,12.16
2023-04-27T16:56:54.518Z,12.13
2023-04-27T16:59:18.942Z,12.07
2023-04-27T17:01:45.479Z,12.03
2023-04-27T17:04:12.114Z,11.97
2023-04-27T17:06:38.412Z,11.94
2023-04-27T17:09:04.824Z,11.88
2023-04-27T17:11:31.270Z,11.82
2023-04-27T17:13:57.722Z,11.79
2023-04-27T17:16:24.187Z,11.76
2023-04-27T17:18:50.551Z,11.75
2023-04-27T17:21:17.302Z,11.68
2023-04-27T17:23:43.598Z,11.65
2023-04-27T17:26:10.058Z,11.59
2023-04-27T17:28:36.437Z,11.55
2023-04-27T17:31:03.084Z,11.52
2023-04-27T17:33:29.444Z,11.48
2023-04-27T17:35:56.008Z,11.46
2023-04-27T17:38:22.512Z,11.41
2023-04-27T17:40:49.009Z,11.39
2023-04-27T17:43:15.637Z,11.36
2023-04-27T17:45:42.019Z,11.34
2023-04-27T17:48:08.645Z,11.36
2023-04-27T17:50:34.966Z,11.36
2023-04-27T17:53:01.405Z,11.33
2023-04-27T17:55:27.786Z,11.30
2023-04-27T17:57:54.274Z,11.27
2023-04-27T18:00:20.667Z,11.23
2023-04-27T18:02:47.112Z,11.20
2023-04-27T18:05:13.541Z,11.17
2023-04-27T18:07:40.130Z,11.17
2023-04-27T18:10:06.542Z,11.17
2023-04-27T18:12:32.963Z,11.15
2023-04-27T18:15:04.361Z,11.15
2023-04-27T18:17:28.617Z,11.12
2023-04-27T18:20:06.976Z,11.09
2023-04-27T18:22:21.614Z,11.07
2023-04-27T18:24:48.649Z,11.04
2023-04-27T18:27:15.023Z,11.01
2023-04-27T18:29:41.425Z,10.98
2023-04-27T18:32:07.942Z,10.95
2023-04-27T18:34:34.309Z,10.94
2023-04-27T18:37:00.713Z,10.93
2023-04-27T18:39:27.141Z,10.94
2023-04-27T18:41:53.618Z,10.91
2023-04-27T18:44:20.063Z,10.91
2023-04-27T18:46:46.463Z,10.87
2023-04-27T18:49:13.076Z,10.87
2023-04-27T18:51:39.446Z,10.85
2023-04-27T18:56:32.323Z,10.81
2023-04-27T18:58:58.706Z,10.82
2023-04-27T19:01:25.498Z,10.77
2023-04-27T19:03:54.057Z,10.79
2023-04-27T19:06:21.396Z,10.74
2023-04-27T19:08:46.965Z,10.67
2023-04-27T19:11:13.444Z,10.61
2023-04-27T19:13:39.837Z,10.57
2023-04-27T19:16:06.325Z,10.54
2023-04-27T19:18:33.049Z,10.50
2023-04-27T19:21:00.366Z,10.46
2023-04-27T19:23:26.845Z,10.39
2023-04-27T19:25:55.136Z,10.39
2023-04-27T19:28:20.321Z,10.40
2023-04-27T19:30:46.786Z,10.37
2023-04-27T19:33:13.213Z,10.36
2023-04-27T19:35:40.687Z,10.32
2023-04-27T19:38:07.130Z,10.35
2023-04-27T19:40:34.187Z,10.24
2023-04-27T19:43:00.683Z,10.23
2023-04-27T19:45:29.200Z,10.24
2023-04-27T19:47:57.942Z,10.26
2023-04-27T19:50:24.315Z,10.20
2023-04-27T19:52:50.692Z,10.15
2023-04-27T19:55:19.584Z,10.15
2023-04-27T19:57:46.011Z,10.11
2023-04-27T20:00:12.746Z,10.02
2023-04-27T20:02:39.407Z,10.04
2023-04-27T20:05:06.095Z,10.01
2023-04-27T20:07:32.190Z,9.99
2023-04-27T20:09:58.930Z,9.98
2023-04-27T20:12:47.355Z,10.01
2023-04-27T20:14:51.730Z,10.00
2023-04-27T20:17:18.123Z,9.95
2023-04-27T20:19:44.565Z,9.93
2023-04-27T20:22:11.000Z,9.90
2023-04-27T20:24:37.351Z,9.89
2023-04-27T20:27:03.813Z,9.87
2023-04-27T20:29:30.158Z,9.90
2023-04-27T20:31:56.616Z,9.82
2023-04-27T20:34:23.159Z,9.84
2023-04-27T20:36:49.616Z,9.84
2023-04-27T20:39:15.945Z,9.77
2023-04-27T20:41:42.450Z,9.76
2023-04-27T20:44:08.915Z,9.76
2023-04-27T20:46:35.285Z,9.74
2023-04-27T20:49:01.683Z,9.72
2023-04-27T20:51:28.366Z,9.66
2023-04-27T20:53:54.993Z,9.63
2023-04-27T20:56:21.396Z,9.58
2023-04-27T20:58:47.750Z,9.47
2023-04-27T21:01:14.179Z,9.43
2023-04-27T21:03:40.680Z,9.37
2023-04-27T21:06:08.153Z,9.31
2023-04-27T21:08:34.535Z,9.24
2023-04-27T21:11:00.939Z,9.17
2023-04-27T21:13:27.355Z,9.12
2023-04-27T21:15:53.771Z,9.16
2023-04-27T21:18:29.570Z,9.09
2023-04-27T21:20:46.557Z,9.05
2023-04-27T21:23:13.212Z,8.98
2023-04-27T21:25:39.500Z,8.96
2023-04-27T21:28:05.880Z,8.95
2023-04-27T21:30:32.385Z,8.90
2023-04-27T21:32:58.825Z,8.86
2023-04-27T21:35:25.151Z,8.78
2023-04-27T21:37:51.527Z,8.68
2023-04-27T21:40:17.948Z,8.61
2023-04-27T21:42:44.411Z,8.61
2023-04-27T21:45:10.811Z,8.57
2023-04-27T21:47:37.391Z,8.55
2023-04-27T21:50:03.692Z,8.56
2023-04-27T21:52:30.129Z,8.50
2023-04-27T21:54:56.503Z,8.50
2023-04-27T21:57:22.998Z,8.50
2023-04-27T21:59:49.345Z,8.47
2023-04-27T22:02:15.769Z,8.41
2023-04-27T22:04:42.321Z,8.32
2023-04-27T22:07:08.565Z,8.28
2023-04-27T22:09:34.965Z,8.28
2023-04-27T22:12:03.588Z,8.28
2023-04-27T22:14:27.857Z,8.26
2023-04-27T22:16:54.340Z,8.23
2023-04-27T22:19:20.734Z,8.22
2023-04-27T22:21:47.110Z,8.22
2023-04-27T22:24:13.658Z,8.20
2023-04-27T22:26:39.980Z,8.18
2023-04-27T22:29:06.434Z,8.16
2023-04-27T22:31:32.876Z,8.09
2023-04-27T22:33:59.182Z,8.10
2023-04-27T22:36:25.564Z,8.08
2023-04-27T22:38:52.062Z,8.05
2023-04-27T22:41:18.465Z,8.04
2023-04-27T22:43:44.956Z,8.04
2023-04-27T22:46:11.458Z,8.03
2023-04-27T22:48:37.773Z,8.05
2023-04-27T22:51:06.731Z,8.10
2023-04-27T22:53:30.604Z,8.16
2023-04-27T22:55:56.966Z,8.19
2023-04-27T22:58:23.425Z,8.14
2023-04-27T23:00:49.912Z,8.14
2023-04-27T23:03:16.410Z,8.16
2023-04-27T23:05:42.711Z,8.16
2023-04-27T23:08:09.159Z,8.17
2023-04-27T23:10:35.576Z,8.16
2023-04-27T23:13:02.126Z,8.14
2023-04-27T23:15:28.499Z,8.10
2023-04-27T23:17:55.006Z,8.07
2023-04-27T23:20:28.170Z,8.14
2023-04-27T23:22:47.848Z,8.08
2023-04-27T23:25:14.406Z,8.05
2023-04-27T23:27:40.784Z,8.01
2023-04-27T23:30:07.235Z,8.00
2023-04-27T23:32:33.675Z,7.95
2023-04-27T23:35:00.099Z,7.92
2023-04-27T23:37:26.556Z,7.85
2023-04-27T23:39:52.974Z,7.82
2023-04-27T23:42:19.429Z,7.82
2023-04-27T23:44:45.809Z,7.76
2023-04-27T23:47:12.182Z,7.72
2023-04-27T23:49:38.580Z,7.67
2023-04-27T23:52:05.023Z,7.64
2023-04-27T23:54:31.458Z,7.66
2023-04-27T23:56:57.891Z,7.66
2023-04-27T23:59:24.297Z,7.63
